sensor_id;sensor_type;location;lat;lon;timestamp;P1;durP1;ratioP1;P2;durP2;ratioP2
323;SDS011;149;51.094;17.002;2022-09-20T00:05:32;5.55;;;4.15;;
323;SDS011;149;51.094;17.002;2022-09-20T00:08:02;6.57;;;4.13;;
323;SDS011;149;51.094;17.002;2022-09-20T00:10:40;3.83;;;3.42;;
323;SDS011;149;51.094;17.002;2022-09-20T00:13:09;4.10;;;3.80;;
323;SDS011;149;51.094;17.002;2022-09-20T00:15:45;4.00;;;3.70;;
323;SDS011;149;51.094;17.002;2022-09-20T00:18:12;3.55;;;3.10;;
323;SDS011;149;51.094;17.002;2022-09-20T00:20:43;5.57;;;3.47;;
323;SDS011;149;51.094;17.002;2022-09-20T00:23:15;2.95;;;2.67;;
323;SDS011;149;51.094;17.002;2022-09-20T00:25:44;3.65;;;2.50;;
323;SDS011;149;51.094;17.002;2022-09-20T00:28:19;3.85;;;2.83;;
323;SDS011;149;51.094;17.002;2022-09-20T00:33:29;3.30;;;3.00;;
323;SDS011;149;51.094;17.002;2022-09-20T00:41:39;3.90;;;3.13;;
323;SDS011;149;51.094;17.002;2022-09-20T00:49:25;8.85;;;3.53;;
323;SDS011;149;51.094;17.002;2022-09-20T00:51:54;5.22;;;2.88;;
323;SDS011;149;51.094;17.002;2022-09-20T00:54:25;4.30;;;3.45;;
323;SDS011;149;51.094;17.002;2022-09-20T00:59:37;2.95;;;2.67;;
323;SDS011;149;51.094;17.002;2022-09-20T01:29:12;6.85;;;3.10;;
323;SDS011;149;51.094;17.002;2022-09-20T01:37:18;3.50;;;2.70;;
323;SDS011;149;51.094;17.002;2022-09-20T01:40:07;6.55;;;2.58;;
323;SDS011;149;51.094;17.002;2022-09-20T01:43:15;5.85;;;3.60;;
323;SDS011;149;51.094;17.002;2022-09-20T01:45:37;3.60;;;2.88;;
323;SDS011;149;51.094;17.002;2022-09-20T01:59:23;2.67;;;2.35;;
323;SDS011;149;51.094;17.002;2022-09-20T02:23:04;10.10;;;2.90;;
323;SDS011;149;51.094;17.002;2022-09-20T02:28:39;1.98;;;1.77;;
323;SDS011;149;51.094;17.002;2022-09-20T02:31:21;2.88;;;2.40;;
323;SDS011;149;51.094;17.002;2022-09-20T02:34:10;2.85;;;2.42;;
323;SDS011;149;51.094;17.002;2022-09-20T02:36:55;4.20;;;3.00;;
323;SDS011;149;51.094;17.002;2022-09-20T02:39:47;3.75;;;2.75;;
323;SDS011;149;51.094;17.002;2022-09-20T02:42:33;3.38;;;2.72;;
323;SDS011;149;51.094;17.002;2022-09-20T02:45:32;3.80;;;3.45;;
323;SDS011;149;51.094;17.002;2022-09-20T02:48:16;4.40;;;2.83;;
323;SDS011;149;51.094;17.002;2022-09-20T02:56:12;5.03;;;3.45;;
323;SDS011;149;51.094;17.002;2022-09-20T03:02:05;3.45;;;3.15;;
323;SDS011;149;51.094;17.002;2022-09-20T03:15:54;3.70;;;3.40;;
323;SDS011;149;51.094;17.002;2022-09-20T03:35:05;9.20;;;4.10;;
323;SDS011;149;51.094;17.002;2022-09-20T03:43:32;3.38;;;2.35;;
323;SDS011;149;51.094;17.002;2022-09-20T04:13:35;12.05;;;5.72;;
323;SDS011;149;51.094;17.002;2022-09-20T04:16:26;10.32;;;6.88;;
323;SDS011;149;51.094;17.002;2022-09-20T04:19:17;16.25;;;9.52;;
323;SDS011;149;51.094;17.002;2022-09-20T04:22:00;7.82;;;6.30;;
323;SDS011;149;51.094;17.002;2022-09-20T04:24:40;11.18;;;5.82;;
323;SDS011;149;51.094;17.002;2022-09-20T04:27:19;5.97;;;5.35;;
323;SDS011;149;51.094;17.002;2022-09-20T04:29:56;5.90;;;5.30;;
323;SDS011;149;51.094;17.002;2022-09-20T04:35:28;7.38;;;6.78;;
323;SDS011;149;51.094;17.002;2022-09-20T04:38:37;8.95;;;8.05;;
323;SDS011;149;51.094;17.002;2022-09-20T04:41:19;8.07;;;6.57;;
323;SDS011;149;51.094;17.002;2022-09-20T04:44:44;7.50;;;6.78;;
323;SDS011;149;51.094;17.002;2022-09-20T04:47:29;9.05;;;7.60;;
323;SDS011;149;51.094;17.002;2022-09-20T04:50:31;9.45;;;8.50;;
323;SDS011;149;51.094;17.002;2022-09-20T04:53:39;10.55;;;9.50;;
323;SDS011;149;51.094;17.002;2022-09-20T04:56:27;10.40;;;8.93;;
323;SDS011;149;51.094;17.002;2022-09-20T04:59:30;13.10;;;9.20;;
323;SDS011;149;51.094;17.002;2022-09-20T05:06:06;11.43;;;9.57;;
323;SDS011;149;51.094;17.002;2022-09-20T05:18:22;10.68;;;9.25;;
323;SDS011;149;51.094;17.002;2022-09-20T05:29:39;13.23;;;8.57;;
323;SDS011;149;51.094;17.002;2022-09-20T05:35:14;9.57;;;8.43;;
323;SDS011;149;51.094;17.002;2022-09-20T05:37:50;11.93;;;8.85;;
323;SDS011;149;51.094;17.002;2022-09-20T05:40:37;9.35;;;8.40;;
323;SDS011;149;51.094;17.002;2022-09-20T05:43:32;8.23;;;7.53;;
323;SDS011;149;51.094;17.002;2022-09-20T05:48:57;8.38;;;6.60;;
323;SDS011;149;51.094;17.002;2022-09-20T05:51:35;8.43;;;7.38;;
323;SDS011;149;51.094;17.002;2022-09-20T05:57:38;8.48;;;7.53;;
323;SDS011;149;51.094;17.002;2022-09-20T06:00:14;6.78;;;6.10;;
323;SDS011;149;51.094;17.002;2022-09-20T06:02:45;9.30;;;6.97;;
323;SDS011;149;51.094;17.002;2022-09-20T06:05:32;7.18;;;6.43;;
323;SDS011;149;51.094;17.002;2022-09-20T06:08:28;9.27;;;7.30;;
323;SDS011;149;51.094;17.002;2022-09-20T06:14:30;7.60;;;6.80;;
323;SDS011;149;51.094;17.002;2022-09-20T06:17:18;9.13;;;6.85;;
323;SDS011;149;51.094;17.002;2022-09-20T06:22:41;8.18;;;5.20;;
323;SDS011;149;51.094;17.002;2022-09-20T06:25:29;7.47;;;5.95;;
323;SDS011;149;51.094;17.002;2022-09-20T06:28:10;6.95;;;5.15;;
323;SDS011;149;51.094;17.002;2022-09-20T06:30:43;8.65;;;5.78;;
323;SDS011;149;51.094;17.002;2022-09-20T06:33:19;9.85;;;5.40;;
323;SDS011;149;51.094;17.002;2022-09-20T06:41:00;5.47;;;4.43;;
323;SDS011;149;51.094;17.002;2022-09-20T06:43:48;8.20;;;5.07;;
323;SDS011;149;51.094;17.002;2022-09-20T06:46:15;7.03;;;4.60;;
323;SDS011;149;51.094;17.002;2022-09-20T06:48:44;7.25;;;5.00;;
323;SDS011;149;51.094;17.002;2022-09-20T06:51:12;4.82;;;4.38;;
323;SDS011;149;51.094;17.002;2022-09-20T06:53:39;5.10;;;4.28;;
323;SDS011;149;51.094;17.002;2022-09-20T06:56:07;8.90;;;4.50;;
323;SDS011;149;51.094;17.002;2022-09-20T06:58:39;9.50;;;5.10;;
323;SDS011;149;51.094;17.002;2022-09-20T07:01:05;10.25;;;5.68;;
323;SDS011;149;51.094;17.002;2022-09-20T07:03:33;5.20;;;4.80;;
323;SDS011;149;51.094;17.002;2022-09-20T07:06:02;4.35;;;3.95;;
323;SDS011;149;51.094;17.002;2022-09-20T07:08:30;5.50;;;5.00;;
323;SDS011;149;51.094;17.002;2022-09-20T07:11:04;14.70;;;4.90;;
323;SDS011;149;51.094;17.002;2022-09-20T07:13:34;9.98;;;8.98;;
323;SDS011;149;51.094;17.002;2022-09-20T07:16:02;9.13;;;5.22;;
323;SDS011;149;51.094;17.002;2022-09-20T07:18:32;6.97;;;5.18;;
323;SDS011;149;51.094;17.002;2022-09-20T07:21:00;5.07;;;4.57;;
323;SDS011;149;51.094;17.002;2022-09-20T07:25:58;6.93;;;5.10;;
323;SDS011;149;51.094;17.002;2022-09-20T07:28:27;4.90;;;4.40;;
323;SDS011;149;51.094;17.002;2022-09-20T07:30:55;8.02;;;5.07;;
323;SDS011;149;51.094;17.002;2022-09-20T07:33:22;5.22;;;4.35;;
323;SDS011;149;51.094;17.002;2022-09-20T07:35:52;3.90;;;3.35;;
323;SDS011;149;51.094;17.002;2022-09-20T07:38:20;3.78;;;3.47;;
323;SDS011;149;51.094;17.002;2022-09-20T07:43:23;4.03;;;3.63;;
323;SDS011;149;51.094;17.002;2022-09-20T07:45:51;4.90;;;4.28;;
323;SDS011;149;51.094;17.002;2022-09-20T07:48:24;4.18;;;3.55;;
323;SDS011;149;51.094;17.002;2022-09-20T07:50:54;3.75;;;3.45;;
323;SDS011;149;51.094;17.002;2022-09-20T07:53:24;5.55;;;3.55;;
323;SDS011;149;51.094;17.002;2022-09-20T07:55:58;4.38;;;3.92;;
323;SDS011;149;51.094;17.002;2022-09-20T07:58:49;4.45;;;3.47;;
323;SDS011;149;51.094;17.002;2022-09-20T08:01:17;6.32;;;3.35;;
323;SDS011;149;51.094;17.002;2022-09-20T08:03:46;3.90;;;3.58;;
323;SDS011;149;51.094;17.002;2022-09-20T08:06:14;4.55;;;4.15;;
323;SDS011;149;51.094;17.002;2022-09-20T08:08:43;4.30;;;3.70;;
323;SDS011;149;51.094;17.002;2022-09-20T08:11:12;7.40;;;4.07;;
323;SDS011;149;51.094;17.002;2022-09-20T08:13:44;3.08;;;2.88;;
323;SDS011;149;51.094;17.002;2022-09-20T08:16:19;4.55;;;3.35;;
323;SDS011;149;51.094;17.002;2022-09-20T08:18:51;2.78;;;2.38;;
323;SDS011;149;51.094;17.002;2022-09-20T08:21:22;4.57;;;3.55;;
323;SDS011;149;51.094;17.002;2022-09-20T08:23:53;4.03;;;3.20;;
323;SDS011;149;51.094;17.002;2022-09-20T08:26:21;3.70;;;3.40;;
323;SDS011;149;51.094;17.002;2022-09-20T08:28:51;5.03;;;3.45;;
323;SDS011;149;51.094;17.002;2022-09-20T08:31:20;5.32;;;3.28;;
323;SDS011;149;51.094;17.002;2022-09-20T08:33:50;3.80;;;3.42;;
323;SDS011;149;51.094;17.002;2022-09-20T08:36:19;3.75;;;3.38;;
323;SDS011;149;51.094;17.002;2022-09-20T08:38:47;5.00;;;2.70;;
323;SDS011;149;51.094;17.002;2022-09-20T08:41:47;4.60;;;2.63;;
323;SDS011;149;51.094;17.002;2022-09-20T08:44:26;3.27;;;2.90;;
323;SDS011;149;51.094;17.002;2022-09-20T08:47:10;3.10;;;2.60;;
323;SDS011;149;51.094;17.002;2022-09-20T08:49:45;2.83;;;2.30;;
323;SDS011;149;51.094;17.002;2022-09-20T08:52:17;3.17;;;2.87;;
323;SDS011;149;51.094;17.002;2022-09-20T08:54:48;7.50;;;3.50;;
323;SDS011;149;51.094;17.002;2022-09-20T08:57:17;4.40;;;3.23;;
323;SDS011;149;51.094;17.002;2022-09-20T08:59:45;2.93;;;2.60;;
323;SDS011;149;51.094;17.002;2022-09-20T09:02:17;4.30;;;3.27;;
323;SDS011;149;51.094;17.002;2022-09-20T09:04:47;3.33;;;2.47;;
323;SDS011;149;51.094;17.002;2022-09-20T09:07:16;3.63;;;3.10;;
323;SDS011;149;51.094;17.002;2022-09-20T09:12:25;5.50;;;3.07;;
323;SDS011;149;51.094;17.002;2022-09-20T09:15:24;3.53;;;3.07;;
323;SDS011;149;51.094;17.002;2022-09-20T09:17:55;2.88;;;2.55;;
323;SDS011;149;51.094;17.002;2022-09-20T09:20:22;4.38;;;2.65;;
323;SDS011;149;51.094;17.002;2022-09-20T09:23:00;6.20;;;3.10;;
323;SDS011;149;51.094;17.002;2022-09-20T09:25:36;3.75;;;2.33;;
323;SDS011;149;51.094;17.002;2022-09-20T09:30:38;2.80;;;2.60;;
323;SDS011;149;51.094;17.002;2022-09-20T09:36:04;3.67;;;3.38;;
323;SDS011;149;51.094;17.002;2022-09-20T09:38:35;4.87;;;4.50;;
323;SDS011;149;51.094;17.002;2022-09-20T09:41:06;6.50;;;3.40;;
323;SDS011;149;51.094;17.002;2022-09-20T09:44:17;3.33;;;3.13;;
323;SDS011;149;51.094;17.002;2022-09-20T09:46:45;4.30;;;3.90;;
323;SDS011;149;51.094;17.002;2022-09-20T09:49:16;5.68;;;3.42;;
323;SDS011;149;51.094;17.002;2022-09-20T09:52:14;20.67;;;4.22;;
323;SDS011;149;51.094;17.002;2022-09-20T09:54:50;8.10;;;3.70;;
323;SDS011;149;51.094;17.002;2022-09-20T09:57:41;3.78;;;3.47;;
323;SDS011;149;51.094;17.002;2022-09-20T10:00:18;3.93;;;2.97;;
323;SDS011;149;51.094;17.002;2022-09-20T10:08:38;4.63;;;3.10;;
323;SDS011;149;51.094;17.002;2022-09-20T10:17:21;4.20;;;2.92;;
323;SDS011;149;51.094;17.002;2022-09-20T10:20:33;2.73;;;2.53;;
323;SDS011;149;51.094;17.002;2022-09-20T10:23:30;4.10;;;3.03;;
323;SDS011;149;51.094;17.002;2022-09-20T10:29:22;5.20;;;2.80;;
323;SDS011;149;51.094;17.002;2022-09-20T10:40:40;2.17;;;1.75;;
323;SDS011;149;51.094;17.002;2022-09-20T10:43:46;2.70;;;2.50;;
323;SDS011;149;51.094;17.002;2022-09-20T10:46:25;2.87;;;2.47;;
323;SDS011;149;51.094;17.002;2022-09-20T10:55:23;2.03;;;1.87;;
323;SDS011;149;51.094;17.002;2022-09-20T10:58:03;1.90;;;1.80;;
323;SDS011;149;51.094;17.002;2022-09-20T11:06:46;2.20;;;1.73;;
323;SDS011;149;51.094;17.002;2022-09-20T11:09:30;1.97;;;1.87;;
323;SDS011;149;51.094;17.002;2022-09-20T11:14:51;3.13;;;2.83;;
323;SDS011;149;51.094;17.002;2022-09-20T11:17:37;3.30;;;2.50;;
323;SDS011;149;51.094;17.002;2022-09-20T11:20:39;1.80;;;1.70;;
323;SDS011;149;51.094;17.002;2022-09-20T11:23:14;3.17;;;2.93;;
323;SDS011;149;51.094;17.002;2022-09-20T11:25:57;2.70;;;1.40;;
323;SDS011;149;51.094;17.002;2022-09-20T11:28:31;1.83;;;1.70;;
323;SDS011;149;51.094;17.002;2022-09-20T11:31:06;2.00;;;1.57;;
323;SDS011;149;51.094;17.002;2022-09-20T11:33:47;2.90;;;1.57;;
323;SDS011;149;51.094;17.002;2022-09-20T11:36:34;4.60;;;1.67;;
323;SDS011;149;51.094;17.002;2022-09-20T11:39:21;2.77;;;2.53;;
323;SDS011;149;51.094;17.002;2022-09-20T11:42:15;1.50;;;1.40;;
323;SDS011;149;51.094;17.002;2022-09-20T11:44:45;3.10;;;2.90;;
323;SDS011;149;51.094;17.002;2022-09-20T11:47:18;3.30;;;1.80;;
323;SDS011;149;51.094;17.002;2022-09-20T11:53:13;1.30;;;1.20;;
323;SDS011;149;51.094;17.002;2022-09-20T11:56:11;1.90;;;1.27;;
323;SDS011;149;51.094;17.002;2022-09-20T11:58:48;1.90;;;1.10;;
323;SDS011;149;51.094;17.002;2022-09-20T12:07:00;1.45;;;1.30;;
323;SDS011;149;51.094;17.002;2022-09-20T12:09:40;2.75;;;1.23;;
323;SDS011;149;51.094;17.002;2022-09-20T12:12:27;1.30;;;1.20;;
323;SDS011;149;51.094;17.002;2022-09-20T12:15:01;5.05;;;1.55;;
323;SDS011;149;51.094;17.002;2022-09-20T12:28:34;2.75;;;2.38;;
323;SDS011;149;51.094;17.002;2022-09-20T12:36:44;2.63;;;2.42;;
323;SDS011;149;51.094;17.002;2022-09-20T12:39:39;2.83;;;2.63;;
323;SDS011;149;51.094;17.002;2022-09-20T12:42:25;3.10;;;2.63;;
323;SDS011;149;51.094;17.002;2022-09-20T12:45:03;2.78;;;2.65;;
323;SDS011;149;51.094;17.002;2022-09-20T12:47:48;4.40;;;3.58;;
323;SDS011;149;51.094;17.002;2022-09-20T12:50:18;2.00;;;1.90;;
323;SDS011;149;51.094;17.002;2022-09-20T12:53:11;9.25;;;2.10;;
323;SDS011;149;51.094;17.002;2022-09-20T12:55:52;4.53;;;1.85;;
323;SDS011;149;51.094;17.002;2022-09-20T12:58:33;2.20;;;1.75;;
323;SDS011;149;51.094;17.002;2022-09-20T13:03:46;1.70;;;1.60;;
323;SDS011;149;51.094;17.002;2022-09-20T13:09:02;1.77;;;1.65;;
323;SDS011;149;51.094;17.002;2022-09-20T13:11:37;2.53;;;2.08;;
323;SDS011;149;51.094;17.002;2022-09-20T13:14:16;3.33;;;1.73;;
323;SDS011;149;51.094;17.002;2022-09-20T13:16:52;5.68;;;2.00;;
323;SDS011;149;51.094;17.002;2022-09-20T13:19:45;1.70;;;1.60;;
323;SDS011;149;51.094;17.002;2022-09-20T13:25:15;3.10;;;2.80;;
323;SDS011;149;51.094;17.002;2022-09-20T13:30:46;2.45;;;2.25;;
323;SDS011;149;51.094;17.002;2022-09-20T13:33:15;2.38;;;1.60;;
323;SDS011;149;51.094;17.002;2022-09-20T13:35:47;2.90;;;1.50;;
323;SDS011;149;51.094;17.002;2022-09-20T13:38:26;1.85;;;1.45;;
323;SDS011;149;51.094;17.002;2022-09-20T13:41:05;1.80;;;1.70;;
323;SDS011;149;51.094;17.002;2022-09-20T13:43:42;2.30;;;1.83;;
323;SDS011;149;51.094;17.002;2022-09-20T13:46:12;1.88;;;1.65;;
323;SDS011;149;51.094;17.002;2022-09-20T13:51:46;1.95;;;1.80;;
323;SDS011;149;51.094;17.002;2022-09-20T13:56:47;1.65;;;1.55;;
323;SDS011;149;51.094;17.002;2022-09-20T13:59:15;1.90;;;1.55;;
323;SDS011;149;51.094;17.002;2022-09-20T14:01:48;3.90;;;2.13;;
323;SDS011;149;51.094;17.002;2022-09-20T14:04:20;2.53;;;1.88;;
323;SDS011;149;51.094;17.002;2022-09-20T14:06:49;1.92;;;1.83;;
323;SDS011;149;51.094;17.002;2022-09-20T14:09:26;2.15;;;1.95;;
323;SDS011;149;51.094;17.002;2022-09-20T14:12:07;1.77;;;1.65;;
323;SDS011;149;51.094;17.002;2022-09-20T14:14:39;1.63;;;1.48;;
323;SDS011;149;51.094;17.002;2022-09-20T14:17:07;2.00;;;1.90;;
323;SDS011;149;51.094;17.002;2022-09-20T14:19:40;2.08;;;1.95;;
323;SDS011;149;51.094;17.002;2022-09-20T14:22:13;2.45;;;2.25;;
323;SDS011;149;51.094;17.002;2022-09-20T14:24:55;2.58;;;2.25;;
323;SDS011;149;51.094;17.002;2022-09-20T14:27:43;1.98;;;1.80;;
323;SDS011;149;51.094;17.002;2022-09-20T14:30:30;2.22;;;2.13;;
323;SDS011;149;51.094;17.002;2022-09-20T14:41:07;3.28;;;2.60;;
323;SDS011;149;51.094;17.002;2022-09-20T14:51:41;5.25;;;2.80;;
323;SDS011;149;51.094;17.002;2022-09-20T15:13:02;3.15;;;2.42;;
323;SDS011;149;51.094;17.002;2022-09-20T15:18:20;3.45;;;2.20;;
323;SDS011;149;51.094;17.002;2022-09-20T15:21:02;3.38;;;2.35;;
323;SDS011;149;51.094;17.002;2022-09-20T15:23:32;2.03;;;1.80;;
323;SDS011;149;51.094;17.002;2022-09-20T15:26:00;2.08;;;1.88;;
323;SDS011;149;51.094;17.002;2022-09-20T15:28:28;1.60;;;1.50;;
323;SDS011;149;51.094;17.002;2022-09-20T15:31:01;2.78;;;1.58;;
323;SDS011;149;51.094;17.002;2022-09-20T15:33:32;1.90;;;1.50;;
323;SDS011;149;51.094;17.002;2022-09-20T15:36:08;1.77;;;1.65;;
323;SDS011;149;51.094;17.002;2022-09-20T15:38:38;1.60;;;1.50;;
323;SDS011;149;51.094;17.002;2022-09-20T15:41:08;1.10;;;1.02;;
323;SDS011;149;51.094;17.002;2022-09-20T15:43:35;1.40;;;1.30;;
323;SDS011;149;51.094;17.002;2022-09-20T15:46:17;1.80;;;1.70;;
323;SDS011;149;51.094;17.002;2022-09-20T15:48:46;4.22;;;1.92;;
323;SDS011;149;51.094;17.002;2022-09-20T15:51:13;1.55;;;1.45;;
323;SDS011;149;51.094;17.002;2022-09-20T15:53:44;4.03;;;1.42;;
323;SDS011;149;51.094;17.002;2022-09-20T15:56:26;1.98;;;1.75;;
323;SDS011;149;51.094;17.002;2022-09-20T15:58:58;3.25;;;2.10;;
323;SDS011;149;51.094;17.002;2022-09-20T16:01:36;2.65;;;1.65;;
323;SDS011;149;51.094;17.002;2022-09-20T16:04:05;1.33;;;1.23;;
323;SDS011;149;51.094;17.002;2022-09-20T16:06:36;1.40;;;1.15;;
323;SDS011;149;51.094;17.002;2022-09-20T16:09:04;1.60;;;1.50;;
323;SDS011;149;51.094;17.002;2022-09-20T16:11:33;2.03;;;1.92;;
323;SDS011;149;51.094;17.002;2022-09-20T16:14:02;2.58;;;2.38;;
323;SDS011;149;51.094;17.002;2022-09-20T16:16:30;3.28;;;1.50;;
323;SDS011;149;51.094;17.002;2022-09-20T16:19:05;2.00;;;1.90;;
323;SDS011;149;51.094;17.002;2022-09-20T16:21:48;3.20;;;1.52;;
323;SDS011;149;51.094;17.002;2022-09-20T16:24:30;4.97;;;1.70;;
323;SDS011;149;51.094;17.002;2022-09-20T16:27:01;2.28;;;2.08;;
323;SDS011;149;51.094;17.002;2022-09-20T16:29:29;3.83;;;1.67;;
323;SDS011;149;51.094;17.002;2022-09-20T16:31:59;4.10;;;1.73;;
323;SDS011;149;51.094;17.002;2022-09-20T16:34:31;2.22;;;1.90;;
323;SDS011;149;51.094;17.002;2022-09-20T16:37:05;3.28;;;2.67;;
323;SDS011;149;51.094;17.002;2022-09-20T16:39:40;2.22;;;1.90;;
323;SDS011;149;51.094;17.002;2022-09-20T16:42:09;2.60;;;2.33;;
323;SDS011;149;51.094;17.002;2022-09-20T16:44:40;3.65;;;2.40;;
323;SDS011;149;51.094;17.002;2022-09-20T16:47:13;6.82;;;2.65;;
323;SDS011;149;51.094;17.002;2022-09-20T16:57:53;2.85;;;2.50;;
323;SDS011;149;51.094;17.002;2022-09-20T17:13:37;4.63;;;2.75;;
323;SDS011;149;51.094;17.002;2022-09-20T17:18:44;3.53;;;3.05;;
323;SDS011;149;51.094;17.002;2022-09-20T17:21:13;5.10;;;3.17;;
323;SDS011;149;51.094;17.002;2022-09-20T17:23:48;5.22;;;3.20;;
323;SDS011;149;51.094;17.002;2022-09-20T17:26:30;3.22;;;2.92;;
323;SDS011;149;51.094;17.002;2022-09-20T17:29:04;4.07;;;3.15;;
323;SDS011;149;51.094;17.002;2022-09-20T17:31:37;5.13;;;2.97;;
323;SDS011;149;51.094;17.002;2022-09-20T17:34:15;2.88;;;2.67;;
323;SDS011;149;51.094;17.002;2022-09-20T17:36:49;3.95;;;3.13;;
323;SDS011;149;51.094;17.002;2022-09-20T17:39:16;4.00;;;2.53;;
323;SDS011;149;51.094;17.002;2022-09-20T17:41:44;5.70;;;3.65;;
323;SDS011;149;51.094;17.002;2022-09-20T17:44:13;2.95;;;2.63;;
323;SDS011;149;51.094;17.002;2022-09-20T17:46:43;3.92;;;3.25;;
323;SDS011;149;51.094;17.002;2022-09-20T17:49:20;3.97;;;2.90;;
323;SDS011;149;51.094;17.002;2022-09-20T17:51:52;3.88;;;2.90;;
323;SDS011;149;51.094;17.002;2022-09-20T17:54:22;2.78;;;2.35;;
323;SDS011;149;51.094;17.002;2022-09-20T17:56:55;3.80;;;2.65;;
323;SDS011;149;51.094;17.002;2022-09-20T17:59:23;2.80;;;2.53;;
323;SDS011;149;51.094;17.002;2022-09-20T18:01:55;4.28;;;3.08;;
323;SDS011;149;51.094;17.002;2022-09-20T18:04:23;3.92;;;2.70;;
323;SDS011;149;51.094;17.002;2022-09-20T18:06:56;5.00;;;2.40;;
323;SDS011;149;51.094;17.002;2022-09-20T18:09:25;2.70;;;2.50;;
323;SDS011;149;51.094;17.002;2022-09-20T18:11:54;3.85;;;3.50;;
323;SDS011;149;51.094;17.002;2022-09-20T18:14:23;7.50;;;2.80;;
323;SDS011;149;51.094;17.002;2022-09-20T18:16:57;5.90;;;3.67;;
323;SDS011;149;51.094;17.002;2022-09-20T18:19:26;3.00;;;2.80;;
323;SDS011;149;51.094;17.002;2022-09-20T18:21:59;2.88;;;2.58;;
323;SDS011;149;51.094;17.002;2022-09-20T18:24:27;3.35;;;2.85;;
323;SDS011;149;51.094;17.002;2022-09-20T18:26:55;4.35;;;3.20;;
323;SDS011;149;51.094;17.002;2022-09-20T18:29:23;10.77;;;3.60;;
323;SDS011;149;51.094;17.002;2022-09-20T18:31:52;6.78;;;4.40;;
323;SDS011;149;51.094;17.002;2022-09-20T18:34:27;5.45;;;3.70;;
323;SDS011;149;51.094;17.002;2022-09-20T18:37:01;3.95;;;3.33;;
323;SDS011;149;51.094;17.002;2022-09-20T18:39:31;5.90;;;4.60;;
323;SDS011;149;51.094;17.002;2022-09-20T18:42:03;3.97;;;3.10;;
323;SDS011;149;51.094;17.002;2022-09-20T18:44:31;7.28;;;3.13;;
323;SDS011;149;51.094;17.002;2022-09-20T18:47:08;3.85;;;2.72;;
323;SDS011;149;51.094;17.002;2022-09-20T18:49:50;3.55;;;3.13;;
323;SDS011;149;51.094;17.002;2022-09-20T18:52:17;4.05;;;3.63;;
323;SDS011;149;51.094;17.002;2022-09-20T18:55:08;3.85;;;3.42;;
323;SDS011;149;51.094;17.002;2022-09-20T19:00:17;5.53;;;4.93;;
323;SDS011;149;51.094;17.002;2022-09-20T19:13:45;3.88;;;3.53;;
323;SDS011;149;51.094;17.002;2022-09-20T19:16:28;8.65;;;6.15;;
323;SDS011;149;51.094;17.002;2022-09-20T19:22:07;6.45;;;5.45;;
323;SDS011;149;51.094;17.002;2022-09-20T19:25:02;6.20;;;5.60;;
323;SDS011;149;51.094;17.002;2022-09-20T19:27:41;8.23;;;7.47;;
323;SDS011;149;51.094;17.002;2022-09-20T19:30:11;9.82;;;8.93;;
323;SDS011;149;51.094;17.002;2022-09-20T19:32:42;10.73;;;9.63;;
323;SDS011;149;51.094;17.002;2022-09-20T19:35:18;9.82;;;8.90;;
323;SDS011;149;51.094;17.002;2022-09-20T19:38:07;11.88;;;9.85;;
323;SDS011;149;51.094;17.002;2022-09-20T19:44:22;13.02;;;11.73;;
323;SDS011;149;51.094;17.002;2022-09-20T19:47:07;10.07;;;9.07;;
323;SDS011;149;51.094;17.002;2022-09-20T19:58:30;9.48;;;8.57;;
323;SDS011;149;51.094;17.002;2022-09-20T20:01:02;8.70;;;7.80;;
323;SDS011;149;51.094;17.002;2022-09-20T20:03:29;7.85;;;7.15;;
323;SDS011;149;51.094;17.002;2022-09-20T20:06:01;10.45;;;7.25;;
323;SDS011;149;51.094;17.002;2022-09-20T20:08:49;7.97;;;7.18;;
323;SDS011;149;51.094;17.002;2022-09-20T20:27:52;6.68;;;5.93;;
323;SDS011;149;51.094;17.002;2022-09-20T20:41:02;6.95;;;6.25;;
323;SDS011;149;51.094;17.002;2022-09-20T20:46:02;7.90;;;5.45;;
323;SDS011;149;51.094;17.002;2022-09-20T20:48:30;8.30;;;5.80;;
323;SDS011;149;51.094;17.002;2022-09-20T20:53:35;6.57;;;5.75;;
323;SDS011;149;51.094;17.002;2022-09-20T21:11:53;13.15;;;9.55;;
323;SDS011;149;51.094;17.002;2022-09-20T21:14:21;9.15;;;8.25;;
323;SDS011;149;51.094;17.002;2022-09-20T21:22:16;9.52;;;8.50;;
323;SDS011;149;51.094;17.002;2022-09-20T21:24:43;9.48;;;8.48;;
323;SDS011;149;51.094;17.002;2022-09-20T21:35:11;10.27;;;8.35;;
323;SDS011;149;51.094;17.002;2022-09-20T21:37:38;10.85;;;8.52;;
323;SDS011;149;51.094;17.002;2022-09-20T21:40:10;8.55;;;7.78;;
323;SDS011;149;51.094;17.002;2022-09-20T21:42:37;9.00;;;8.05;;
323;SDS011;149;51.094;17.002;2022-09-20T23:34:59;10.00;;;7.35;;
323;SDS011;149;51.094;17.002;2022-09-20T23:37:26;8.93;;;7.03;;
323;SDS011;149;51.094;17.002;2022-09-20T23:39:56;7.93;;;6.80;;
323;SDS011;149;51.094;17.002;2022-09-20T23:42:23;7.95;;;6.45;;
323;SDS011;149;51.094;17.002;2022-09-20T23:52:49;10.13;;;8.35;;
